createdAt,value
2018-11-11T00:00:12.517Z,51.07
2018-11-11T00:02:41.849Z,51.23
2018-11-11T00:05:11.438Z,52.63
2018-11-11T00:07:40.520Z,49.97
2018-11-11T00:10:09.617Z,50.20
2018-11-11T00:12:39.175Z,53.70
2018-11-11T00:15:10.074Z,49.73
2018-11-11T00:17:39.053Z,43.40
2018-11-11T00:20:08.916Z,41.53
2018-11-11T00:22:37.909Z,44.50
2018-11-11T00:25:07.528Z,41.40
2018-11-11T00:27:37.007Z,41.60
2018-11-11T00:30:07.557Z,35.63
2018-11-11T00:32:36.385Z,37.47
2018-11-11T00:35:05.752Z,35.80
2018-11-11T00:37:34.523Z,36.27
2018-11-11T00:40:03.523Z,40.37
2018-11-11T00:42:32.451Z,36.00
2018-11-11T00:45:01.274Z,39.20
2018-11-11T00:47:30.154Z,37.33
2018-11-11T00:49:59.028Z,36.27
2018-11-11T00:52:27.916Z,39.17
2018-11-11T00:54:56.764Z,37.73
2018-11-11T00:57:26.713Z,42.00
2018-11-11T00:59:55.580Z,37.20
2018-11-11T01:02:24.449Z,35.43
2018-11-11T01:04:53.276Z,36.27
2018-11-11T01:07:22.093Z,34.20
2018-11-11T01:09:50.851Z,31.47
2018-11-11T01:12:19.731Z,35.13
2018-11-11T01:14:48.529Z,33.97
2018-11-11T01:17:17.293Z,31.53
2018-11-11T01:19:46.053Z,30.20
2018-11-11T01:22:14.909Z,29.83
2018-11-11T01:24:43.864Z,36.03
2018-11-11T01:27:12.700Z,29.70
2018-11-11T01:29:41.490Z,31.40
2018-11-11T01:32:10.280Z,31.00
2018-11-11T01:34:39.069Z,28.20
2018-11-11T01:37:07.977Z,28.53
2018-11-11T01:39:37.064Z,32.13
2018-11-11T01:42:06.180Z,26.77
2018-11-11T01:44:35.027Z,27.50
2018-11-11T01:47:03.928Z,30.50
2018-11-11T01:49:32.732Z,32.67
2018-11-11T01:52:01.507Z,29.20
2018-11-11T01:54:30.384Z,28.20
2018-11-11T01:56:59.291Z,28.73
2018-11-11T01:59:28.122Z,29.40
2018-11-11T02:01:57.133Z,31.30
2018-11-11T02:04:26.148Z,30.97
2018-11-11T02:06:54.868Z,31.30
2018-11-11T02:09:23.724Z,30.27
2018-11-11T02:11:52.546Z,28.23
2018-11-11T02:14:21.483Z,30.50
2018-11-11T02:16:50.219Z,33.80
2018-11-11T02:19:18.996Z,31.53
2018-11-11T02:21:47.958Z,38.53
2018-11-11T02:24:16.705Z,33.40
2018-11-11T02:26:45.447Z,35.47
2018-11-11T02:29:15.013Z,32.20
2018-11-11T02:31:43.784Z,34.30
2018-11-11T02:34:12.553Z,33.83
2018-11-11T02:36:41.345Z,40.50
2018-11-11T02:39:10.450Z,42.37
2018-11-11T02:41:39.183Z,38.60
2018-11-11T02:44:07.936Z,41.77
2018-11-11T02:46:36.670Z,39.60
2018-11-11T02:49:05.810Z,38.43
2018-11-11T02:51:34.568Z,37.37
2018-11-11T02:54:03.339Z,36.70
2018-11-11T02:56:32.265Z,34.13
2018-11-11T02:59:01.267Z,36.77
2018-11-11T03:01:30.325Z,38.83
2018-11-11T03:03:59.351Z,43.97
2018-11-11T03:06:28.174Z,41.17
2018-11-11T03:08:56.961Z,39.57
2018-11-11T03:11:25.883Z,40.77
2018-11-11T03:13:54.621Z,39.27
2018-11-11T03:16:23.328Z,35.77
2018-11-11T03:18:52.254Z,35.93
2018-11-11T03:21:21.053Z,32.43
2018-11-11T03:23:49.794Z,31.60
2018-11-11T03:26:18.574Z,31.37
2018-11-11T03:28:47.332Z,28.27
2018-11-11T03:31:16.979Z,31.40
2018-11-11T03:33:45.755Z,29.37
2018-11-11T03:36:14.542Z,31.43
2018-11-11T03:38:43.393Z,33.40
2018-11-11T03:41:12.291Z,29.70
2018-11-11T03:43:41.049Z,32.80
2018-11-11T03:46:12.666Z,32.73
2018-11-11T03:48:41.521Z,34.00
2018-11-11T03:51:10.294Z,30.77
2018-11-11T03:53:39.335Z,34.97
2018-11-11T03:56:08.090Z,35.90
2018-11-11T03:58:36.881Z,36.30
2018-11-11T04:01:06.071Z,32.43
2018-11-11T04:03:34.756Z,40.20
2018-11-11T04:06:03.844Z,40.30
2018-11-11T04:08:32.578Z,43.93
2018-11-11T04:11:01.329Z,40.53
2018-11-11T04:13:30.159Z,39.50
2018-11-11T04:15:58.897Z,42.67
2018-11-11T04:18:27.716Z,39.90
2018-11-11T04:20:56.593Z,40.83
2018-11-11T04:23:25.486Z,43.70
2018-11-11T04:25:54.236Z,38.83
2018-11-11T04:28:22.957Z,35.20
2018-11-11T04:30:51.676Z,34.80
2018-11-11T04:33:20.627Z,32.90
2018-11-11T04:35:49.310Z,36.40
2018-11-11T04:38:18.001Z,32.27
2018-11-11T04:40:46.716Z,34.70
2018-11-11T04:43:15.469Z,33.27
2018-11-11T04:45:44.159Z,30.50
2018-11-11T04:48:12.823Z,32.67
2018-11-11T04:50:41.638Z,32.40
2018-11-11T04:53:10.356Z,28.53
2018-11-11T04:55:39.108Z,30.00
2018-11-11T04:58:07.805Z,32.37
2018-11-11T05:00:36.541Z,32.60
2018-11-11T05:03:05.879Z,32.23
2018-11-11T05:05:34.612Z,28.20
2018-11-11T05:08:03.382Z,26.20
2018-11-11T05:10:32.307Z,33.73
2018-11-11T05:13:01.253Z,29.00
2018-11-11T05:15:29.926Z,30.47
2018-11-11T05:17:58.649Z,30.47
2018-11-11T05:20:27.401Z,34.83
2018-11-11T05:22:56.230Z,33.90
2018-11-11T05:25:25.113Z,35.33
2018-11-11T05:27:54.192Z,34.47
2018-11-11T05:30:25.713Z,37.53
2018-11-11T05:32:54.415Z,36.87
2018-11-11T05:35:23.245Z,42.27
2018-11-11T05:37:51.971Z,40.27
2018-11-11T05:40:20.758Z,39.17
2018-11-11T05:42:49.457Z,41.00
2018-11-11T05:45:18.155Z,39.50
2018-11-11T05:47:46.867Z,42.40
2018-11-11T05:50:16.830Z,33.17
2018-11-11T05:52:46.660Z,33.87
2018-11-11T05:55:15.658Z,31.80
2018-11-11T05:57:44.376Z,28.53
2018-11-11T06:00:15.486Z,28.13
2018-11-11T06:02:44.615Z,29.50
2018-11-11T06:05:14.584Z,28.30
2018-11-11T06:07:43.285Z,29.33
2018-11-11T06:10:13.387Z,31.80
2018-11-11T06:12:42.176Z,37.63
2018-11-11T06:15:12.186Z,29.40
2018-11-11T06:17:41.003Z,32.20
2018-11-11T06:20:12.152Z,33.47
2018-11-11T06:22:40.969Z,38.40
2018-11-11T06:25:10.245Z,39.10
2018-11-11T06:27:39.008Z,34.13
2018-11-11T06:30:08.658Z,36.93
2018-11-11T06:32:37.564Z,47.57
2018-11-11T06:35:06.700Z,40.23
2018-11-11T06:37:35.489Z,36.77
2018-11-11T06:40:04.647Z,41.40
2018-11-11T06:42:33.603Z,37.97
2018-11-11T06:45:02.361Z,38.97
2018-11-11T06:47:31.167Z,39.07
2018-11-11T06:50:00.000Z,40.33
2018-11-11T06:52:28.744Z,34.37
2018-11-11T06:54:57.553Z,32.23
2018-11-11T06:57:26.511Z,33.80
2018-11-11T06:59:55.249Z,32.33
2018-11-11T07:02:30.976Z,28.00
2018-11-11T07:04:59.946Z,27.93
2018-11-11T07:07:28.807Z,21.03
2018-11-11T07:09:57.648Z,20.83
2018-11-11T07:12:26.731Z,17.13
2018-11-11T07:14:55.533Z,19.93
2018-11-11T07:17:24.725Z,15.63
2018-11-11T07:19:53.445Z,11.90
2018-11-11T07:22:22.191Z,13.33
2018-11-11T07:24:50.937Z,14.70
2018-11-11T07:27:19.813Z,16.87
2018-11-11T07:29:48.589Z,12.70
2018-11-11T07:32:17.389Z,14.30
2018-11-11T07:34:46.129Z,13.30
2018-11-11T07:37:14.934Z,12.47
2018-11-11T07:39:43.695Z,11.97
2018-11-11T07:42:12.568Z,11.83
2018-11-11T07:44:41.456Z,11.37
2018-11-11T07:47:10.289Z,11.13
2018-11-11T07:49:39.149Z,11.97
2018-11-11T07:52:08.364Z,12.50
2018-11-11T07:54:37.076Z,12.50
2018-11-11T07:57:06.034Z,12.87
2018-11-11T07:59:34.772Z,16.17
2018-11-11T08:02:03.835Z,12.93
2018-11-11T08:04:32.760Z,18.33
2018-11-11T08:07:02.067Z,17.50
2018-11-11T08:09:34.899Z,17.87
2018-11-11T08:12:05.417Z,13.83
2018-11-11T08:14:35.264Z,15.10
2018-11-11T08:17:04.479Z,13.60
2018-11-11T08:19:33.564Z,12.43
2018-11-11T08:22:02.430Z,10.77
2018-11-11T08:24:31.216Z,17.90
2018-11-11T08:26:59.973Z,13.23
2018-11-11T08:29:28.841Z,14.03
2018-11-11T08:31:57.629Z,12.53
2018-11-11T08:34:26.488Z,14.77
2018-11-11T08:36:55.687Z,18.00
2018-11-11T08:39:24.592Z,16.93
2018-11-11T08:41:53.470Z,17.73
2018-11-11T08:44:22.350Z,18.03
2018-11-11T08:46:51.128Z,18.07
2018-11-11T08:49:19.944Z,17.37
2018-11-11T08:51:48.705Z,17.63
2018-11-11T08:54:17.596Z,17.83
2018-11-11T08:56:46.480Z,16.63
2018-11-11T08:59:15.348Z,17.83
2018-11-11T09:01:44.164Z,18.40
2018-11-11T09:04:13.206Z,15.63
2018-11-11T09:06:42.019Z,17.27
2018-11-11T09:09:10.958Z,16.57
2018-11-11T09:11:41.967Z,18.83
2018-11-11T09:14:10.892Z,18.77
2018-11-11T09:16:39.644Z,17.60
2018-11-11T09:19:08.472Z,20.47
2018-11-11T09:21:37.421Z,18.77
2018-11-11T09:24:06.336Z,17.50
2018-11-11T09:26:35.242Z,16.50
2018-11-11T09:29:04.003Z,17.10
2018-11-11T09:31:32.857Z,18.00
2018-11-11T09:34:01.796Z,17.70
2018-11-11T09:36:30.646Z,17.40
2018-11-11T09:38:59.614Z,16.30
2018-11-11T09:41:28.560Z,20.30
2018-11-11T09:43:57.525Z,15.20
2018-11-11T09:46:26.779Z,20.00
2018-11-11T09:48:55.645Z,18.10
2018-11-11T09:51:25.047Z,19.23
2018-11-11T09:53:53.986Z,15.53
2018-11-11T09:56:22.909Z,18.57
2018-11-11T09:58:51.733Z,17.23
2018-11-11T10:01:20.775Z,17.80
2018-11-11T10:04:12.091Z,18.40
2018-11-11T10:06:48.375Z,15.90
2018-11-11T10:09:26.627Z,16.20
2018-11-11T10:12:07.895Z,18.30
2018-11-11T10:14:44.673Z,17.43
2018-11-11T10:17:18.690Z,15.47
2018-11-11T10:19:51.509Z,15.40
2018-11-11T10:22:25.044Z,15.30
2018-11-11T10:24:59.898Z,20.63
2018-11-11T10:27:36.673Z,16.90
2018-11-11T10:30:10.595Z,15.63
2018-11-11T10:32:58.583Z,23.17
2018-11-11T10:35:34.001Z,15.70
2018-11-11T10:38:08.699Z,16.90
2018-11-11T10:40:48.675Z,16.70
2018-11-11T10:43:23.974Z,16.20
2018-11-11T10:45:57.924Z,19.20
2018-11-11T10:48:31.167Z,19.50
2018-11-11T10:51:01.953Z,21.03
2018-11-11T10:53:31.147Z,21.87
2018-11-11T10:55:59.906Z,24.83
2018-11-11T10:58:29.153Z,19.03
2018-11-11T11:01:03.254Z,26.40
2018-11-11T11:03:33.396Z,19.40
2018-11-11T11:06:02.914Z,17.73
2018-11-11T11:08:31.873Z,22.03
2018-11-11T11:11:00.845Z,19.57
2018-11-11T11:13:30.234Z,21.53
2018-11-11T11:15:59.612Z,23.60
2018-11-11T11:18:28.479Z,20.97
2018-11-11T11:20:57.260Z,22.60
2018-11-11T11:23:26.412Z,22.80
2018-11-11T11:25:55.298Z,21.87
2018-11-11T11:28:24.432Z,18.30
2018-11-11T11:30:53.278Z,18.37
2018-11-11T11:33:22.191Z,24.23
2018-11-11T11:35:51.172Z,18.93
2018-11-11T11:38:20.219Z,19.20
2018-11-11T11:40:49.069Z,20.57
2018-11-11T11:43:18.030Z,20.50
2018-11-11T11:45:46.862Z,20.77
2018-11-11T11:48:15.690Z,18.93
2018-11-11T11:50:44.429Z,20.23
2018-11-11T11:53:13.273Z,22.00
2018-11-11T11:55:42.302Z,19.57
2018-11-11T11:58:20.512Z,20.43
2018-11-11T12:00:49.397Z,18.70
2018-11-11T12:03:18.494Z,18.03
2018-11-11T12:05:47.566Z,19.47
2018-11-11T12:08:16.399Z,17.30
2018-11-11T12:10:45.294Z,20.20
2018-11-11T12:13:14.884Z,17.30
2018-11-11T12:15:43.965Z,15.60
2018-11-11T12:18:12.993Z,18.07
2018-11-11T12:20:42.476Z,16.77
2018-11-11T12:23:11.823Z,16.73
2018-11-11T12:25:41.181Z,19.83
2018-11-11T12:28:10.582Z,14.30
2018-11-11T12:30:40.226Z,16.47
2018-11-11T12:33:09.879Z,16.73
2018-11-11T12:35:38.759Z,18.53
2018-11-11T12:38:09.337Z,23.53
2018-11-11T12:40:38.483Z,24.03
2018-11-11T12:43:07.418Z,15.77
2018-11-11T12:45:36.289Z,18.20
2018-11-11T12:48:05.376Z,15.80
2018-11-11T12:50:34.315Z,17.80
2018-11-11T12:53:03.250Z,17.67
2018-11-11T12:55:32.123Z,19.37
2018-11-11T12:58:01.133Z,16.00
2018-11-11T13:00:30.140Z,19.70
2018-11-11T13:02:58.999Z,18.80
2018-11-11T13:05:27.924Z,18.87
2018-11-11T13:07:56.830Z,15.97
2018-11-11T13:10:25.937Z,17.03
2018-11-11T13:12:54.835Z,13.13
2018-11-11T13:15:23.794Z,20.37
2018-11-11T13:17:52.704Z,14.30
2018-11-11T13:20:21.813Z,14.20
2018-11-11T13:22:51.139Z,13.00
2018-11-11T13:25:20.062Z,12.43
2018-11-11T13:27:49.312Z,14.13
2018-11-11T13:30:18.335Z,14.80
2018-11-11T13:32:47.503Z,13.53
2018-11-11T13:35:17.526Z,11.83
2018-11-11T13:37:46.752Z,14.63
2018-11-11T13:40:16.989Z,11.33
2018-11-11T13:42:45.948Z,17.30
2018-11-11T13:45:17.221Z,12.93
2018-11-11T13:47:46.930Z,13.60
2018-11-11T13:50:20.094Z,14.87
2018-11-11T13:52:49.219Z,12.13
2018-11-11T13:55:19.342Z,9.37
2018-11-11T13:57:48.897Z,11.90
2018-11-11T14:00:25.117Z,11.30
2018-11-11T14:02:54.108Z,9.43
2018-11-11T14:05:23.167Z,12.23
2018-11-11T14:07:52.552Z,10.80
2018-11-11T14:10:21.442Z,12.33
2018-11-11T14:12:50.513Z,12.40
2018-11-11T14:15:25.503Z,10.03
2018-11-11T14:17:55.658Z,9.40
2018-11-11T14:20:25.449Z,11.50
2018-11-11T14:22:55.404Z,8.93
2018-11-11T14:25:27.751Z,9.50
2018-11-11T14:27:56.784Z,11.40
2018-11-11T14:30:26.747Z,8.20
2018-11-11T14:32:56.802Z,7.00
2018-11-11T14:35:26.256Z,8.80
2018-11-11T14:37:55.115Z,7.03
2018-11-11T14:40:25.713Z,7.57
2018-11-11T14:42:54.578Z,7.13
2018-11-11T14:45:23.915Z,7.87
2018-11-11T14:47:54.263Z,8.70
2018-11-11T14:50:24.014Z,7.20
2018-11-11T14:52:53.128Z,6.20
2018-11-11T14:55:23.618Z,7.60
2018-11-11T14:57:52.591Z,7.80
2018-11-11T15:00:24.707Z,7.40
2018-11-11T15:03:06.303Z,5.63
2018-11-11T15:05:35.278Z,5.30
2018-11-11T15:08:04.778Z,5.77
2018-11-11T15:10:33.722Z,7.90
2018-11-11T15:13:02.760Z,9.40
2018-11-11T15:15:31.564Z,6.83
2018-11-11T15:18:01.494Z,7.57
2018-11-11T15:20:30.337Z,7.43
2018-11-11T15:22:59.249Z,9.00
2018-11-11T15:25:29.123Z,9.90
2018-11-11T15:27:58.272Z,7.70
2018-11-11T15:30:29.002Z,7.60
2018-11-11T15:32:58.609Z,9.97
2018-11-11T15:35:27.654Z,9.10
2018-11-11T15:37:56.652Z,8.23
2018-11-11T15:40:30.045Z,8.80
2018-11-11T15:42:59.085Z,9.30
2018-11-11T15:45:29.512Z,8.60
2018-11-11T15:47:59.453Z,9.27
2018-11-11T15:50:29.829Z,14.33
2018-11-11T15:53:00.028Z,9.60
2018-11-11T15:55:30.198Z,12.93
2018-11-11T15:57:59.245Z,10.53
2018-11-11T16:00:29.513Z,10.77
2018-11-11T16:02:58.480Z,13.07
2018-11-11T16:05:28.060Z,11.97
2018-11-11T16:07:58.037Z,10.60
2018-11-11T16:10:28.520Z,13.30
2018-11-11T16:12:57.513Z,12.77
2018-11-11T16:15:31.283Z,14.60
2018-11-11T16:18:01.701Z,14.37
2018-11-11T16:20:31.005Z,11.70
2018-11-11T16:23:01.292Z,13.00
2018-11-11T16:25:32.705Z,20.50
2018-11-11T16:28:01.592Z,13.87
2018-11-11T16:30:32.553Z,15.30
2018-11-11T16:33:01.941Z,14.93
2018-11-11T16:35:31.304Z,17.27
2018-11-11T16:38:00.850Z,15.07
2018-11-11T16:40:30.999Z,17.93
2018-11-11T16:43:00.690Z,18.77
2018-11-11T16:45:30.365Z,24.53
2018-11-11T16:47:59.425Z,17.43
2018-11-11T16:50:30.036Z,23.73
2018-11-11T16:53:00.713Z,20.67
2018-11-11T16:55:30.891Z,18.83
2018-11-11T16:58:02.411Z,23.60
2018-11-11T17:00:32.703Z,21.73
2018-11-11T17:03:02.442Z,23.43
2018-11-11T17:05:32.712Z,22.33
2018-11-11T17:08:01.628Z,27.00
2018-11-11T17:10:32.190Z,25.40
2018-11-11T17:13:02.710Z,23.83
2018-11-11T17:15:32.344Z,22.43
2018-11-11T17:18:01.175Z,21.77
2018-11-11T17:20:30.063Z,24.60
2018-11-11T17:23:00.189Z,27.03
2018-11-11T17:25:29.311Z,27.83
2018-11-11T17:27:58.213Z,25.83
2018-11-11T17:30:28.515Z,24.80
2018-11-11T17:32:58.076Z,26.60
2018-11-11T17:35:27.141Z,29.93
2018-11-11T17:37:55.948Z,25.97
2018-11-11T17:40:27.114Z,28.50
2018-11-11T17:42:56.352Z,30.80
2018-11-11T17:45:25.646Z,30.30
2018-11-11T17:47:54.785Z,28.47
2018-11-11T17:50:27.190Z,32.67
2018-11-11T17:52:56.087Z,33.50
2018-11-11T17:55:26.068Z,34.63
2018-11-11T17:57:55.004Z,33.70
2018-11-11T18:00:26.128Z,42.37
2018-11-11T18:02:55.588Z,35.33
2018-11-11T18:05:25.806Z,41.47
2018-11-11T18:07:54.927Z,36.80
2018-11-11T18:10:24.824Z,33.70
2018-11-11T18:12:53.770Z,36.23
2018-11-11T18:15:24.941Z,35.97
2018-11-11T18:17:53.867Z,40.17
2018-11-11T18:20:24.988Z,33.60
2018-11-11T18:22:54.744Z,35.67
2018-11-11T18:25:23.856Z,34.97
2018-11-11T18:27:52.940Z,43.60
2018-11-11T18:30:24.445Z,32.43
2018-11-11T18:32:53.290Z,35.10
2018-11-11T18:35:22.445Z,36.00
2018-11-11T18:37:51.359Z,39.50
2018-11-11T18:40:21.737Z,38.63
2018-11-11T18:42:50.619Z,38.20
2018-11-11T18:45:21.187Z,37.70
2018-11-11T18:47:50.802Z,43.70
2018-11-11T18:50:22.008Z,43.90
2018-11-11T18:52:51.074Z,42.03
2018-11-11T18:55:20.438Z,41.90
2018-11-11T18:57:49.404Z,48.77
2018-11-11T19:00:20.329Z,43.80
2018-11-11T19:02:50.356Z,47.03
2018-11-11T19:05:20.076Z,46.60
2018-11-11T19:07:49.347Z,45.57
2018-11-11T19:10:19.675Z,49.10
2018-11-11T19:12:49.595Z,48.20
2018-11-11T19:15:19.544Z,48.30
2018-11-11T19:17:49.179Z,53.87
2018-11-11T19:20:19.198Z,51.00
2018-11-11T19:22:48.032Z,55.60
2018-11-11T19:25:19.272Z,51.37
2018-11-11T19:27:49.193Z,52.87
2018-11-11T19:30:19.104Z,53.30
2018-11-11T19:32:48.753Z,52.07
2018-11-11T19:35:18.054Z,53.33
2018-11-11T19:37:48.175Z,57.73
2018-11-11T19:40:18.804Z,48.30
2018-11-11T19:42:47.853Z,49.60
2018-11-11T19:45:19.094Z,52.60
2018-11-11T19:47:47.968Z,53.30
2018-11-11T19:50:18.123Z,55.23
2018-11-11T19:52:48.112Z,50.13
2018-11-11T19:55:18.392Z,51.87
2018-11-11T19:57:47.342Z,52.37
2018-11-11T20:00:18.884Z,56.53
2018-11-11T20:02:49.042Z,49.60
2018-11-11T20:05:19.013Z,53.53
2018-11-11T20:07:48.819Z,52.03
2018-11-11T20:10:18.609Z,57.30
2018-11-11T20:12:47.584Z,51.23
2018-11-11T20:15:18.343Z,55.77
2018-11-11T20:17:47.755Z,50.90
2018-11-11T20:20:18.803Z,53.03
2018-11-11T20:22:47.983Z,52.20
2018-11-11T20:25:18.248Z,49.20
2018-11-11T20:27:47.329Z,57.43
2018-11-11T20:30:18.559Z,51.57
2018-11-11T20:32:47.398Z,47.80
2018-11-11T20:35:18.803Z,54.40
2018-11-11T20:37:47.747Z,53.07
2018-11-11T20:40:18.201Z,48.17
2018-11-11T20:42:47.611Z,59.67
2018-11-11T20:45:18.256Z,50.97
2018-11-11T20:47:47.865Z,49.97
2018-11-11T20:50:21.291Z,50.20
2018-11-11T20:52:51.878Z,49.10
2018-11-11T20:55:21.186Z,49.80
2018-11-11T20:57:50.151Z,53.07
2018-11-11T21:00:23.213Z,56.13
2018-11-11T21:02:52.082Z,51.07
2018-11-11T21:05:22.482Z,47.23
2018-11-11T21:07:51.402Z,51.80
2018-11-11T21:10:21.629Z,57.97
2018-11-11T21:12:50.484Z,46.50
2018-11-11T21:15:21.532Z,46.30
2018-11-11T21:17:50.520Z,52.43
2018-11-11T21:20:21.110Z,51.53
2018-11-11T21:22:49.913Z,58.27
2018-11-11T21:25:18.926Z,47.13
2018-11-11T21:27:48.465Z,49.50
2018-11-11T21:30:22.373Z,50.37
2018-11-11T21:32:51.730Z,48.67
2018-11-11T21:35:20.685Z,47.30
2018-11-11T21:37:49.716Z,56.80
2018-11-11T21:40:20.792Z,45.53
2018-11-11T21:42:50.216Z,48.07
2018-11-11T21:45:20.424Z,51.47
2018-11-11T21:47:49.319Z,55.40
2018-11-11T21:50:20.869Z,47.43
2018-11-11T21:52:55.513Z,48.47
2018-11-11T21:55:24.335Z,51.77
2018-11-11T21:57:53.233Z,51.43
2018-11-11T22:00:22.565Z,50.37
2018-11-11T22:02:51.399Z,50.03
2018-11-11T22:05:20.290Z,52.30
2018-11-11T22:07:49.099Z,54.40
2018-11-11T22:10:18.635Z,45.90
2018-11-11T22:12:47.514Z,54.90
2018-11-11T22:15:16.496Z,52.13
2018-11-11T22:17:45.441Z,48.47
2018-11-11T22:20:14.257Z,47.20
2018-11-11T22:22:43.026Z,48.47
2018-11-11T22:25:11.773Z,47.20
2018-11-11T22:27:40.616Z,52.30
2018-11-11T22:33:02.628Z,49.23
2018-11-11T22:35:31.591Z,45.83
2018-11-11T22:38:00.483Z,47.43
2018-11-11T22:40:29.826Z,49.30
2018-11-11T22:42:58.732Z,51.53
2018-11-11T22:45:28.646Z,52.70
2018-11-11T22:47:57.502Z,53.80
2018-11-11T22:50:27.197Z,57.40
2018-11-11T22:52:56.083Z,55.67
2018-11-11T22:55:24.916Z,46.23
2018-11-11T22:57:54.121Z,49.83
2018-11-11T23:00:28.256Z,53.40
2018-11-11T23:02:57.249Z,56.00
2018-11-11T23:05:26.282Z,55.33
2018-11-11T23:07:55.119Z,52.20
2018-11-11T23:10:24.455Z,51.17
2018-11-11T23:12:53.294Z,50.97
2018-11-11T23:15:22.768Z,57.07
2018-11-11T23:17:51.617Z,57.07
2018-11-11T23:20:21.683Z,55.90
2018-11-11T23:22:50.475Z,52.47
2018-11-11T23:25:20.587Z,50.13
2018-11-11T23:27:49.465Z,51.30
2018-11-11T23:30:20.689Z,53.90
2018-11-11T23:32:49.866Z,53.23
2018-11-11T23:35:18.947Z,54.03
2018-11-11T23:37:48.259Z,57.07
2018-11-11T23:40:18.179Z,63.43
2018-11-11T23:42:47.645Z,59.20
2018-11-11T23:45:16.811Z,56.30
2018-11-11T23:47:45.768Z,53.97
2018-11-11T23:50:17.793Z,63.03
2018-11-11T23:52:47.036Z,60.27
2018-11-11T23:55:17.280Z,60.27
2018-11-11T23:57:46.110Z,56.10
